sensor_id;sensor_type;location;lat;lon;timestamp;P1;durP1;ratioP1;P2;durP2;ratioP2
78622;SDS011;67943;54.412;9.502;2023-04-16T00:02:07;21.73;;;12.18;;
78622;SDS011;67943;54.412;9.502;2023-04-16T00:07:10;21.98;;;12.70;;
78622;SDS011;67943;54.412;9.502;2023-04-16T00:12:12;19.00;;;12.55;;
78622;SDS011;67943;54.412;9.502;2023-04-16T00:17:14;22.20;;;12.43;;
78622;SDS011;67943;54.412;9.502;2023-04-16T00:22:17;19.33;;;12.43;;
78622;SDS011;67943;54.412;9.502;2023-04-16T00:27:19;21.92;;;11.70;;
78622;SDS011;67943;54.412;9.502;2023-04-16T00:32:20;22.20;;;12.85;;
78622;SDS011;67943;54.412;9.502;2023-04-16T00:37:23;20.48;;;11.55;;
78622;SDS011;67943;54.412;9.502;2023-04-16T00:42:24;20.60;;;11.65;;
78622;SDS011;67943;54.412;9.502;2023-04-16T00:47:26;20.30;;;12.35;;
78622;SDS011;67943;54.412;9.502;2023-04-16T00:52:29;22.60;;;13.40;;
78622;SDS011;67943;54.412;9.502;2023-04-16T00:57:31;19.02;;;11.88;;
78622;SDS011;67943;54.412;9.502;2023-04-16T01:02:33;17.95;;;10.82;;
78622;SDS011;67943;54.412;9.502;2023-04-16T01:07:36;18.55;;;11.40;;
78622;SDS011;67943;54.412;9.502;2023-04-16T01:12:37;15.38;;;10.07;;
78622;SDS011;67943;54.412;9.502;2023-04-16T01:17:39;16.25;;;10.82;;
78622;SDS011;67943;54.412;9.502;2023-04-16T01:22:41;21.33;;;11.00;;
78622;SDS011;67943;54.412;9.502;2023-04-16T01:27:43;21.00;;;11.70;;
78622;SDS011;67943;54.412;9.502;2023-04-16T01:32:44;20.25;;;10.77;;
78622;SDS011;67943;54.412;9.502;2023-04-16T01:37:47;22.65;;;12.85;;
78622;SDS011;67943;54.412;9.502;2023-04-16T01:42:50;14.90;;;9.90;;
78622;SDS011;67943;54.412;9.502;2023-04-16T01:47:51;20.05;;;12.70;;
78622;SDS011;67943;54.412;9.502;2023-04-16T01:52:54;23.95;;;13.13;;
78622;SDS011;67943;54.412;9.502;2023-04-16T01:57:56;23.45;;;13.02;;
78622;SDS011;67943;54.412;9.502;2023-04-16T02:02:57;20.70;;;12.20;;
78622;SDS011;67943;54.412;9.502;2023-04-16T02:08:00;22.95;;;11.50;;
78622;SDS011;67943;54.412;9.502;2023-04-16T02:13:02;19.95;;;13.15;;
78622;SDS011;67943;54.412;9.502;2023-04-16T02:18:03;21.30;;;11.70;;
78622;SDS011;67943;54.412;9.502;2023-04-16T02:23:06;20.00;;;11.85;;
78622;SDS011;67943;54.412;9.502;2023-04-16T02:28:08;20.35;;;11.63;;
78622;SDS011;67943;54.412;9.502;2023-04-16T02:33:10;20.20;;;11.35;;
78622;SDS011;67943;54.412;9.502;2023-04-16T02:38:13;20.63;;;12.98;;
78622;SDS011;67943;54.412;9.502;2023-04-16T02:43:15;20.75;;;12.38;;
78622;SDS011;67943;54.412;9.502;2023-04-16T02:48:16;19.30;;;12.32;;
78622;SDS011;67943;54.412;9.502;2023-04-16T02:53:19;19.02;;;12.02;;
78622;SDS011;67943;54.412;9.502;2023-04-16T02:58:21;22.63;;;12.93;;
78622;SDS011;67943;54.412;9.502;2023-04-16T03:03:23;21.48;;;12.32;;
78622;SDS011;67943;54.412;9.502;2023-04-16T03:08:26;20.23;;;12.23;;
78622;SDS011;67943;54.412;9.502;2023-04-16T03:13:28;19.35;;;11.75;;
78622;SDS011;67943;54.412;9.502;2023-04-16T03:18:29;19.17;;;10.73;;
78622;SDS011;67943;54.412;9.502;2023-04-16T03:23:32;18.17;;;11.27;;
78622;SDS011;67943;54.412;9.502;2023-04-16T03:28:34;18.60;;;11.57;;
78622;SDS011;67943;54.412;9.502;2023-04-16T03:33:36;19.75;;;11.48;;
78622;SDS011;67943;54.412;9.502;2023-04-16T03:38:39;21.60;;;12.05;;
78622;SDS011;67943;54.412;9.502;2023-04-16T03:43:40;20.52;;;12.60;;
78622;SDS011;67943;54.412;9.502;2023-04-16T03:48:41;19.45;;;10.90;;
78622;SDS011;67943;54.412;9.502;2023-04-16T03:53:44;27.48;;;14.15;;
78622;SDS011;67943;54.412;9.502;2023-04-16T03:58:46;17.63;;;11.55;;
78622;SDS011;67943;54.412;9.502;2023-04-16T04:03:47;19.20;;;12.68;;
78622;SDS011;67943;54.412;9.502;2023-04-16T04:08:50;18.40;;;11.10;;
78622;SDS011;67943;54.412;9.502;2023-04-16T04:13:51;17.27;;;11.07;;
78622;SDS011;67943;54.412;9.502;2023-04-16T04:18:53;19.88;;;13.20;;
78622;SDS011;67943;54.412;9.502;2023-04-16T04:23:56;18.20;;;10.93;;
78622;SDS011;67943;54.412;9.502;2023-04-16T04:28:58;19.83;;;12.27;;
78622;SDS011;67943;54.412;9.502;2023-04-16T04:33:59;19.17;;;11.70;;
78622;SDS011;67943;54.412;9.502;2023-04-16T04:39:02;19.38;;;12.15;;
78622;SDS011;67943;54.412;9.502;2023-04-16T04:44:03;20.92;;;11.98;;
78622;SDS011;67943;54.412;9.502;2023-04-16T04:49:05;21.17;;;12.98;;
78622;SDS011;67943;54.412;9.502;2023-04-16T04:54:08;19.42;;;12.18;;
78622;SDS011;67943;54.412;9.502;2023-04-16T04:59:10;22.05;;;12.77;;
78622;SDS011;67943;54.412;9.502;2023-04-16T05:04:11;20.50;;;11.68;;
78622;SDS011;67943;54.412;9.502;2023-04-16T05:09:14;20.98;;;13.48;;
78622;SDS011;67943;54.412;9.502;2023-04-16T05:14:16;20.20;;;12.35;;
78622;SDS011;67943;54.412;9.502;2023-04-16T05:19:17;18.92;;;10.98;;
78622;SDS011;67943;54.412;9.502;2023-04-16T05:24:21;18.83;;;12.45;;
78622;SDS011;67943;54.412;9.502;2023-04-16T05:29:22;24.08;;;14.38;;
78622;SDS011;67943;54.412;9.502;2023-04-16T05:34:24;18.55;;;11.57;;
78622;SDS011;67943;54.412;9.502;2023-04-16T05:39:26;20.42;;;11.55;;
78622;SDS011;67943;54.412;9.502;2023-04-16T05:44:28;24.48;;;14.32;;
78622;SDS011;67943;54.412;9.502;2023-04-16T05:49:30;22.17;;;14.02;;
78622;SDS011;67943;54.412;9.502;2023-04-16T05:54:32;19.92;;;13.18;;
78622;SDS011;67943;54.412;9.502;2023-04-16T05:59:34;18.80;;;11.50;;
78622;SDS011;67943;54.412;9.502;2023-04-16T06:04:35;20.73;;;13.05;;
78622;SDS011;67943;54.412;9.502;2023-04-16T06:09:38;19.77;;;11.52;;
78622;SDS011;67943;54.412;9.502;2023-04-16T06:14:40;19.55;;;12.43;;
78622;SDS011;67943;54.412;9.502;2023-04-16T06:19:41;22.95;;;13.32;;
78622;SDS011;67943;54.412;9.502;2023-04-16T06:24:44;18.83;;;12.18;;
78622;SDS011;67943;54.412;9.502;2023-04-16T06:29:45;20.30;;;12.55;;
78622;SDS011;67943;54.412;9.502;2023-04-16T06:34:47;17.20;;;11.10;;
78622;SDS011;67943;54.412;9.502;2023-04-16T06:39:49;18.30;;;12.13;;
78622;SDS011;67943;54.412;9.502;2023-04-16T06:44:51;19.45;;;10.98;;
78622;SDS011;67943;54.412;9.502;2023-04-16T06:49:53;23.02;;;14.82;;
78622;SDS011;67943;54.412;9.502;2023-04-16T06:54:56;19.13;;;11.18;;
78622;SDS011;67943;54.412;9.502;2023-04-16T06:59:58;20.17;;;13.27;;
78622;SDS011;67943;54.412;9.502;2023-04-16T07:05:00;21.60;;;13.77;;
78622;SDS011;67943;54.412;9.502;2023-04-16T07:10:03;17.85;;;12.23;;
78622;SDS011;67943;54.412;9.502;2023-04-16T07:15:06;15.68;;;10.43;;
78622;SDS011;67943;54.412;9.502;2023-04-16T07:20:08;22.48;;;13.07;;
78622;SDS011;67943;54.412;9.502;2023-04-16T07:25:11;20.23;;;12.50;;
78622;SDS011;67943;54.412;9.502;2023-04-16T07:30:13;23.20;;;15.52;;
78622;SDS011;67943;54.412;9.502;2023-04-16T07:35:14;20.90;;;11.93;;
78622;SDS011;67943;54.412;9.502;2023-04-16T07:40:17;23.63;;;14.60;;
78622;SDS011;67943;54.412;9.502;2023-04-16T07:45:19;21.55;;;14.57;;
78622;SDS011;67943;54.412;9.502;2023-04-16T07:50:20;22.27;;;13.25;;
78622;SDS011;67943;54.412;9.502;2023-04-16T07:55:23;23.15;;;13.93;;
78622;SDS011;67943;54.412;9.502;2023-04-16T08:00:25;20.20;;;13.00;;
78622;SDS011;67943;54.412;9.502;2023-04-16T08:05:26;18.48;;;12.32;;
78622;SDS011;67943;54.412;9.502;2023-04-16T08:10:29;23.80;;;14.77;;
78622;SDS011;67943;54.412;9.502;2023-04-16T08:15:31;21.90;;;13.45;;
78622;SDS011;67943;54.412;9.502;2023-04-16T08:20:32;23.42;;;14.23;;
78622;SDS011;67943;54.412;9.502;2023-04-16T08:25:35;21.27;;;12.32;;
78622;SDS011;67943;54.412;9.502;2023-04-16T08:30:36;20.58;;;11.95;;
78622;SDS011;67943;54.412;9.502;2023-04-16T08:35:38;19.52;;;13.10;;
78622;SDS011;67943;54.412;9.502;2023-04-16T08:40:41;19.55;;;10.73;;
78622;SDS011;67943;54.412;9.502;2023-04-16T08:45:43;22.40;;;14.00;;
78622;SDS011;67943;54.412;9.502;2023-04-16T08:50:48;23.52;;;12.57;;
78622;SDS011;67943;54.412;9.502;2023-04-16T08:55:54;17.05;;;11.13;;
78622;SDS011;67943;54.412;9.502;2023-04-16T09:00:59;16.98;;;12.10;;
78622;SDS011;67943;54.412;9.502;2023-04-16T09:06:03;17.38;;;11.38;;
78622;SDS011;67943;54.412;9.502;2023-04-16T09:11:06;19.73;;;11.30;;
78622;SDS011;67943;54.412;9.502;2023-04-16T09:16:07;17.13;;;11.30;;
78622;SDS011;67943;54.412;9.502;2023-04-16T09:21:10;15.35;;;10.70;;
78622;SDS011;67943;54.412;9.502;2023-04-16T09:26:14;16.98;;;10.75;;
78622;SDS011;67943;54.412;9.502;2023-04-16T09:31:16;19.23;;;11.77;;
78622;SDS011;67943;54.412;9.502;2023-04-16T09:36:21;17.80;;;10.30;;
78622;SDS011;67943;54.412;9.502;2023-04-16T09:41:25;18.33;;;11.52;;
78622;SDS011;67943;54.412;9.502;2023-04-16T09:46:28;17.23;;;10.82;;
78622;SDS011;67943;54.412;9.502;2023-04-16T09:51:35;17.50;;;10.50;;
78622;SDS011;67943;54.412;9.502;2023-04-16T09:56:40;16.08;;;10.65;;
78622;SDS011;67943;54.412;9.502;2023-04-16T10:01:42;15.70;;;9.98;;
78622;SDS011;67943;54.412;9.502;2023-04-16T10:06:48;18.48;;;11.00;;
78622;SDS011;67943;54.412;9.502;2023-04-16T10:12:04;16.05;;;10.50;;
78622;SDS011;67943;54.412;9.502;2023-04-16T10:17:07;19.25;;;11.43;;
78622;SDS011;67943;54.412;9.502;2023-04-16T10:22:08;16.90;;;11.15;;
78622;SDS011;67943;54.412;9.502;2023-04-16T10:27:11;16.38;;;10.02;;
78622;SDS011;67943;54.412;9.502;2023-04-16T10:32:13;15.50;;;10.13;;
78622;SDS011;67943;54.412;9.502;2023-04-16T10:37:15;16.90;;;11.13;;
78622;SDS011;67943;54.412;9.502;2023-04-16T10:42:19;16.60;;;10.30;;
78622;SDS011;67943;54.412;9.502;2023-04-16T10:47:21;16.23;;;9.63;;
78622;SDS011;67943;54.412;9.502;2023-04-16T10:52:25;16.95;;;10.00;;
78622;SDS011;67943;54.412;9.502;2023-04-16T10:57:30;13.85;;;10.35;;
78622;SDS011;67943;54.412;9.502;2023-04-16T11:02:32;13.88;;;9.32;;
78622;SDS011;67943;54.412;9.502;2023-04-16T11:07:34;18.35;;;10.32;;
78622;SDS011;67943;54.412;9.502;2023-04-16T11:12:38;16.15;;;10.00;;
78622;SDS011;67943;54.412;9.502;2023-04-16T11:17:41;17.98;;;11.18;;
78622;SDS011;67943;54.412;9.502;2023-04-16T11:22:44;15.80;;;10.45;;
78622;SDS011;67943;54.412;9.502;2023-04-16T11:27:47;17.92;;;10.65;;
78622;SDS011;67943;54.412;9.502;2023-04-16T11:32:49;15.48;;;9.88;;
78622;SDS011;67943;54.412;9.502;2023-04-16T11:37:54;15.98;;;11.30;;
78622;SDS011;67943;54.412;9.502;2023-04-16T11:43:01;14.15;;;9.52;;
78622;SDS011;67943;54.412;9.502;2023-04-16T11:48:03;18.67;;;11.35;;
78622;SDS011;67943;54.412;9.502;2023-04-16T11:53:04;17.83;;;10.98;;
78622;SDS011;67943;54.412;9.502;2023-04-16T11:58:11;18.42;;;11.35;;
78622;SDS011;67943;54.412;9.502;2023-04-16T12:03:14;18.38;;;11.10;;
78622;SDS011;67943;54.412;9.502;2023-04-16T12:08:27;19.95;;;11.35;;
78622;SDS011;67943;54.412;9.502;2023-04-16T12:13:31;16.60;;;10.60;;
78622;SDS011;67943;54.412;9.502;2023-04-16T12:18:44;18.73;;;11.30;;
78622;SDS011;67943;54.412;9.502;2023-04-16T12:23:59;16.15;;;10.75;;
78622;SDS011;67943;54.412;9.502;2023-04-16T12:29:13;17.20;;;10.50;;
78622;SDS011;67943;54.412;9.502;2023-04-16T12:34:16;16.63;;;10.77;;
78622;SDS011;67943;54.412;9.502;2023-04-16T12:39:18;14.55;;;9.20;;
78622;SDS011;67943;54.412;9.502;2023-04-16T12:44:21;19.40;;;10.77;;
78622;SDS011;67943;54.412;9.502;2023-04-16T12:49:23;15.55;;;10.05;;
78622;SDS011;67943;54.412;9.502;2023-04-16T12:54:24;15.30;;;9.90;;
78622;SDS011;67943;54.412;9.502;2023-04-16T12:59:29;16.08;;;10.63;;
78622;SDS011;67943;54.412;9.502;2023-04-16T13:04:30;17.33;;;9.90;;
78622;SDS011;67943;54.412;9.502;2023-04-16T13:09:32;17.33;;;11.07;;
78622;SDS011;67943;54.412;9.502;2023-04-16T13:14:35;16.33;;;9.52;;
78622;SDS011;67943;54.412;9.502;2023-04-16T13:19:36;14.10;;;9.45;;
78622;SDS011;67943;54.412;9.502;2023-04-16T13:24:38;19.15;;;11.00;;
78622;SDS011;67943;54.412;9.502;2023-04-16T13:29:40;17.08;;;10.65;;
78622;SDS011;67943;54.412;9.502;2023-04-16T13:34:42;20.17;;;11.68;;
78622;SDS011;67943;54.412;9.502;2023-04-16T13:39:43;16.50;;;10.50;;
78622;SDS011;67943;54.412;9.502;2023-04-16T13:44:47;18.10;;;11.05;;
78622;SDS011;67943;54.412;9.502;2023-04-16T13:49:52;20.60;;;12.02;;
78622;SDS011;67943;54.412;9.502;2023-04-16T13:54:53;20.15;;;11.73;;
78622;SDS011;67943;54.412;9.502;2023-04-16T13:59:56;15.07;;;10.52;;
78622;SDS011;67943;54.412;9.502;2023-04-16T14:04:58;17.52;;;10.93;;
78622;SDS011;67943;54.412;9.502;2023-04-16T14:09:59;16.63;;;11.25;;
78622;SDS011;67943;54.412;9.502;2023-04-16T14:15:02;16.98;;;10.57;;
78622;SDS011;67943;54.412;9.502;2023-04-16T14:20:05;16.38;;;9.73;;
78622;SDS011;67943;54.412;9.502;2023-04-16T14:25:08;18.30;;;10.30;;
78622;SDS011;67943;54.412;9.502;2023-04-16T14:30:17;14.10;;;9.68;;
78622;SDS011;67943;54.412;9.502;2023-04-16T14:35:18;15.60;;;9.75;;
78622;SDS011;67943;54.412;9.502;2023-04-16T14:40:20;16.33;;;10.50;;
78622;SDS011;67943;54.412;9.502;2023-04-16T14:45:22;15.00;;;10.13;;
78622;SDS011;67943;54.412;9.502;2023-04-16T14:50:27;16.75;;;11.55;;
78622;SDS011;67943;54.412;9.502;2023-04-16T14:55:29;15.98;;;10.48;;
78622;SDS011;67943;54.412;9.502;2023-04-16T15:00:33;14.25;;;10.02;;
78622;SDS011;67943;54.412;9.502;2023-04-16T15:05:35;18.90;;;11.00;;
78622;SDS011;67943;54.412;9.502;2023-04-16T15:10:36;14.82;;;10.02;;
78622;SDS011;67943;54.412;9.502;2023-04-16T15:15:39;17.90;;;11.52;;
78622;SDS011;67943;54.412;9.502;2023-04-16T15:20:41;19.95;;;11.35;;
78622;SDS011;67943;54.412;9.502;2023-04-16T15:25:42;16.60;;;11.40;;
78622;SDS011;67943;54.412;9.502;2023-04-16T15:30:45;15.77;;;10.35;;
78622;SDS011;67943;54.412;9.502;2023-04-16T15:35:47;19.05;;;10.80;;
78622;SDS011;67943;54.412;9.502;2023-04-16T15:40:50;14.75;;;10.18;;
78622;SDS011;67943;54.412;9.502;2023-04-16T15:45:53;18.08;;;11.20;;
78622;SDS011;67943;54.412;9.502;2023-04-16T15:50:55;18.67;;;12.43;;
78622;SDS011;67943;54.412;9.502;2023-04-16T15:55:56;15.15;;;9.90;;
78622;SDS011;67943;54.412;9.502;2023-04-16T16:00:59;17.60;;;11.60;;
78622;SDS011;67943;54.412;9.502;2023-04-16T16:06:01;16.13;;;10.65;;
78622;SDS011;67943;54.412;9.502;2023-04-16T16:11:03;15.73;;;10.48;;
78622;SDS011;67943;54.412;9.502;2023-04-16T16:16:07;16.35;;;10.82;;
78622;SDS011;67943;54.412;9.502;2023-04-16T16:21:09;18.75;;;11.68;;
78622;SDS011;67943;54.412;9.502;2023-04-16T16:26:10;20.33;;;11.93;;
78622;SDS011;67943;54.412;9.502;2023-04-16T16:31:13;17.77;;;11.05;;
78622;SDS011;67943;54.412;9.502;2023-04-16T16:36:14;18.73;;;11.88;;
78622;SDS011;67943;54.412;9.502;2023-04-16T16:41:16;22.40;;;12.05;;
78622;SDS011;67943;54.412;9.502;2023-04-16T16:46:19;18.63;;;10.75;;
78622;SDS011;67943;54.412;9.502;2023-04-16T16:51:20;25.20;;;12.55;;
78622;SDS011;67943;54.412;9.502;2023-04-16T16:56:22;22.42;;;12.68;;
78622;SDS011;67943;54.412;9.502;2023-04-16T17:01:25;19.48;;;11.15;;
78622;SDS011;67943;54.412;9.502;2023-04-16T17:06:26;21.90;;;12.70;;
78622;SDS011;67943;54.412;9.502;2023-04-16T17:11:28;17.08;;;10.85;;
78622;SDS011;67943;54.412;9.502;2023-04-16T17:16:32;15.10;;;10.15;;
78622;SDS011;67943;54.412;9.502;2023-04-16T17:21:33;18.55;;;10.85;;
78622;SDS011;67943;54.412;9.502;2023-04-16T17:26:34;14.40;;;10.52;;
78622;SDS011;67943;54.412;9.502;2023-04-16T17:31:37;19.30;;;11.13;;
78622;SDS011;67943;54.412;9.502;2023-04-16T17:36:39;16.95;;;11.10;;
78622;SDS011;67943;54.412;9.502;2023-04-16T17:41:40;20.05;;;11.52;;
78622;SDS011;67943;54.412;9.502;2023-04-16T17:46:43;15.52;;;10.45;;
78622;SDS011;67943;54.412;9.502;2023-04-16T17:51:44;18.30;;;12.32;;
78622;SDS011;67943;54.412;9.502;2023-04-16T17:56:46;17.65;;;11.20;;
78622;SDS011;67943;54.412;9.502;2023-04-16T18:01:49;13.90;;;9.35;;
78622;SDS011;67943;54.412;9.502;2023-04-16T18:06:50;14.88;;;9.07;;
78622;SDS011;67943;54.412;9.502;2023-04-16T18:11:52;13.90;;;9.05;;
78622;SDS011;67943;54.412;9.502;2023-04-16T18:16:55;13.90;;;9.27;;
78622;SDS011;67943;54.412;9.502;2023-04-16T18:21:57;13.05;;;8.38;;
78622;SDS011;67943;54.412;9.502;2023-04-16T18:26:58;16.75;;;11.52;;
78622;SDS011;67943;54.412;9.502;2023-04-16T18:32:01;13.15;;;8.60;;
78622;SDS011;67943;54.412;9.502;2023-04-16T18:37:03;11.20;;;7.43;;
78622;SDS011;67943;54.412;9.502;2023-04-16T18:42:05;11.35;;;7.45;;
78622;SDS011;67943;54.412;9.502;2023-04-16T18:47:08;10.13;;;6.63;;
78622;SDS011;67943;54.412;9.502;2023-04-16T18:52:10;13.15;;;9.07;;
78622;SDS011;67943;54.412;9.502;2023-04-16T18:57:11;12.95;;;8.20;;
78622;SDS011;67943;54.412;9.502;2023-04-16T19:02:14;13.60;;;8.50;;
78622;SDS011;67943;54.412;9.502;2023-04-16T19:07:16;13.63;;;9.40;;
78622;SDS011;67943;54.412;9.502;2023-04-16T19:12:17;16.65;;;9.75;;
78622;SDS011;67943;54.412;9.502;2023-04-16T19:17:20;15.27;;;9.65;;
78622;SDS011;67943;54.412;9.502;2023-04-16T19:22:22;17.35;;;11.25;;
78622;SDS011;67943;54.412;9.502;2023-04-16T19:27:23;15.52;;;10.20;;
78622;SDS011;67943;54.412;9.502;2023-04-16T19:32:26;17.00;;;9.90;;
78622;SDS011;67943;54.412;9.502;2023-04-16T19:37:27;15.90;;;9.60;;
78622;SDS011;67943;54.412;9.502;2023-04-16T19:42:29;14.95;;;8.80;;
78622;SDS011;67943;54.412;9.502;2023-04-16T19:47:32;17.48;;;9.50;;
78622;SDS011;67943;54.412;9.502;2023-04-16T19:52:33;14.95;;;9.88;;
78622;SDS011;67943;54.412;9.502;2023-04-16T19:57:37;15.48;;;10.13;;
78622;SDS011;67943;54.412;9.502;2023-04-16T20:02:40;16.27;;;10.45;;
78622;SDS011;67943;54.412;9.502;2023-04-16T20:07:42;22.45;;;14.10;;
78622;SDS011;67943;54.412;9.502;2023-04-16T20:12:43;23.58;;;13.77;;
78622;SDS011;67943;54.412;9.502;2023-04-16T20:17:46;21.00;;;13.43;;
78622;SDS011;67943;54.412;9.502;2023-04-16T20:22:47;21.50;;;13.23;;
78622;SDS011;67943;54.412;9.502;2023-04-16T20:27:49;18.55;;;12.50;;
78622;SDS011;67943;54.412;9.502;2023-04-16T20:32:52;23.52;;;14.95;;
78622;SDS011;67943;54.412;9.502;2023-04-16T20:37:53;28.65;;;16.95;;
78622;SDS011;67943;54.412;9.502;2023-04-16T20:42:55;24.40;;;15.80;;
78622;SDS011;67943;54.412;9.502;2023-04-16T20:48:00;23.30;;;15.07;;
78622;SDS011;67943;54.412;9.502;2023-04-16T20:53:01;23.88;;;14.75;;
78622;SDS011;67943;54.412;9.502;2023-04-16T20:58:03;26.08;;;15.07;;
78622;SDS011;67943;54.412;9.502;2023-04-16T21:03:06;22.20;;;13.00;;
78622;SDS011;67943;54.412;9.502;2023-04-16T21:08:07;23.05;;;13.05;;
78622;SDS011;67943;54.412;9.502;2023-04-16T21:13:09;25.25;;;13.45;;
78622;SDS011;67943;54.412;9.502;2023-04-16T21:18:12;24.42;;;15.30;;
78622;SDS011;67943;54.412;9.502;2023-04-16T21:23:13;18.98;;;12.40;;
78622;SDS011;67943;54.412;9.502;2023-04-16T21:28:15;18.33;;;12.57;;
78622;SDS011;67943;54.412;9.502;2023-04-16T21:33:18;20.25;;;13.00;;
78622;SDS011;67943;54.412;9.502;2023-04-16T21:38:19;20.08;;;12.15;;
78622;SDS011;67943;54.412;9.502;2023-04-16T21:43:22;17.50;;;11.38;;
78622;SDS011;67943;54.412;9.502;2023-04-16T21:48:25;19.77;;;12.25;;
78622;SDS011;67943;54.412;9.502;2023-04-16T21:53:27;18.52;;;12.00;;
78622;SDS011;67943;54.412;9.502;2023-04-16T21:58:31;17.40;;;11.43;;
78622;SDS011;67943;54.412;9.502;2023-04-16T22:03:33;17.77;;;11.23;;
78622;SDS011;67943;54.412;9.502;2023-04-16T22:08:38;18.17;;;11.05;;
78622;SDS011;67943;54.412;9.502;2023-04-16T22:13:40;18.02;;;11.18;;
78622;SDS011;67943;54.412;9.502;2023-04-16T22:18:43;19.63;;;11.43;;
78622;SDS011;67943;54.412;9.502;2023-04-16T22:23:46;20.83;;;12.32;;
78622;SDS011;67943;54.412;9.502;2023-04-16T22:28:47;24.08;;;14.80;;
78622;SDS011;67943;54.412;9.502;2023-04-16T22:33:50;20.15;;;11.35;;
78622;SDS011;67943;54.412;9.502;2023-04-16T22:38:52;18.00;;;10.80;;
78622;SDS011;67943;54.412;9.502;2023-04-16T22:43:53;20.63;;;12.98;;
78622;SDS011;67943;54.412;9.502;2023-04-16T22:48:56;18.48;;;10.68;;
78622;SDS011;67943;54.412;9.502;2023-04-16T22:53:58;20.52;;;13.05;;
78622;SDS011;67943;54.412;9.502;2023-04-16T22:58:59;21.55;;;13.82;;
78622;SDS011;67943;54.412;9.502;2023-04-16T23:04:02;22.38;;;12.95;;
78622;SDS011;67943;54.412;9.502;2023-04-16T23:09:04;20.20;;;12.65;;
78622;SDS011;67943;54.412;9.502;2023-04-16T23:14:06;16.40;;;11.48;;
78622;SDS011;67943;54.412;9.502;2023-04-16T23:19:09;17.73;;;11.48;;
78622;SDS011;67943;54.412;9.502;2023-04-16T23:24:13;20.08;;;10.88;;
78622;SDS011;67943;54.412;9.502;2023-04-16T23:29:16;18.40;;;11.65;;
78622;SDS011;67943;54.412;9.502;2023-04-16T23:34:19;19.42;;;11.30;;
78622;SDS011;67943;54.412;9.502;2023-04-16T23:39:20;16.17;;;10.27;;
78622;SDS011;67943;54.412;9.502;2023-04-16T23:44:21;15.82;;;10.43;;
78622;SDS011;67943;54.412;9.502;2023-04-16T23:49:24;17.20;;;10.52;;
78622;SDS011;67943;54.412;9.502;2023-04-16T23:54:26;18.57;;;10.77;;
78622;SDS011;67943;54.412;9.502;2023-04-16T23:59:27;18.67;;;11.35;;
